sensor_id;sensor_type;location;lat;lon;timestamp;pressure;altitude;pressure_sealevel;temperature;humidity
67015;BME280;1033;52.560;13.374;2023-04-30T00:00:11;101473.25;;;8.05;70.58
67015;BME280;1033;52.560;13.374;2023-04-30T00:02:40;101478.00;;;8.03;71.04
67015;BME280;1033;52.560;13.374;2023-04-30T00:05:11;101480.88;;;7.93;71.29
67015;BME280;1033;52.560;13.374;2023-04-30T00:07:40;101479.34;;;7.91;71.22
67015;BME280;1033;52.560;13.374;2023-04-30T00:10:10;101478.84;;;7.87;71.47
67015;BME280;1033;52.560;13.374;2023-04-30T00:12:39;101476.31;;;7.85;71.25
67015;BME280;1033;52.560;13.374;2023-04-30T00:15:09;101473.28;;;7.80;71.17
67015;BME280;1033;52.560;13.374;2023-04-30T00:17:39;101479.53;;;7.73;71.52
67015;BME280;1033;52.560;13.374;2023-04-30T00:20:11;101485.44;;;7.68;71.70
67015;BME280;1033;52.560;13.374;2023-04-30T00:22:41;101485.59;;;7.67;71.76
67015;BME280;1033;52.560;13.374;2023-04-30T00:25:10;101490.31;;;7.57;72.30
67015;BME280;1033;52.560;13.374;2023-04-30T00:27:39;101494.00;;;7.56;72.31
67015;BME280;1033;52.560;13.374;2023-04-30T00:30:09;101490.16;;;7.50;72.68
67015;BME280;1033;52.560;13.374;2023-04-30T00:32:38;101485.75;;;7.41;73.24
67015;BME280;1033;52.560;13.374;2023-04-30T00:35:09;101485.44;;;7.44;72.97
67015;BME280;1033;52.560;13.374;2023-04-30T00:37:41;101489.13;;;7.43;73.04
67015;BME280;1033;52.560;13.374;2023-04-30T00:40:11;101500.75;;;7.35;73.34
67015;BME280;1033;52.560;13.374;2023-04-30T00:42:40;101491.28;;;7.31;73.49
67015;BME280;1033;52.560;13.374;2023-04-30T00:45:10;101499.03;;;7.26;73.97
67015;BME280;1033;52.560;13.374;2023-04-30T00:47:39;101498.88;;;7.20;73.99
67015;BME280;1033;52.560;13.374;2023-04-30T00:50:10;101504.06;;;7.13;74.42
67015;BME280;1033;52.560;13.374;2023-04-30T00:52:43;101508.09;;;7.09;74.72
67015;BME280;1033;52.560;13.374;2023-04-30T00:55:12;101513.13;;;7.12;74.39
67015;BME280;1033;52.560;13.374;2023-04-30T00:57:41;101513.47;;;7.09;74.65
67015;BME280;1033;52.560;13.374;2023-04-30T01:00:12;101515.81;;;6.96;75.58
67015;BME280;1033;52.560;13.374;2023-04-30T01:02:41;101521.13;;;6.88;76.10
67015;BME280;1033;52.560;13.374;2023-04-30T01:05:13;101522.81;;;6.81;76.76
67015;BME280;1033;52.560;13.374;2023-04-30T01:07:42;101528.97;;;6.73;77.34
67015;BME280;1033;52.560;13.374;2023-04-30T01:10:14;101537.97;;;6.82;76.98
67015;BME280;1033;52.560;13.374;2023-04-30T01:12:49;101540.28;;;6.77;77.32
67015;BME280;1033;52.560;13.374;2023-04-30T01:15:26;101538.25;;;6.79;77.28
67015;BME280;1033;52.560;13.374;2023-04-30T01:18:01;101530.88;;;6.73;77.32
67015;BME280;1033;52.560;13.374;2023-04-30T01:20:33;101542.91;;;6.69;77.79
67015;BME280;1033;52.560;13.374;2023-04-30T01:23:24;101554.84;;;6.66;78.33
67015;BME280;1033;52.560;13.374;2023-04-30T01:26:12;101549.59;;;6.57;78.55
67015;BME280;1033;52.560;13.374;2023-04-30T01:28:44;101552.81;;;6.60;79.05
67015;BME280;1033;52.560;13.374;2023-04-30T01:31:16;101544.88;;;6.59;79.23
67015;BME280;1033;52.560;13.374;2023-04-30T01:33:46;101548.25;;;6.52;79.64
67015;BME280;1033;52.560;13.374;2023-04-30T01:36:36;101546.16;;;6.38;80.23
67015;BME280;1033;52.560;13.374;2023-04-30T01:42:09;101554.97;;;6.31;81.40
67015;BME280;1033;52.560;13.374;2023-04-30T01:45:03;101559.69;;;6.29;81.22
67015;BME280;1033;52.560;13.374;2023-04-30T01:47:39;101552.22;;;6.15;82.47
67015;BME280;1033;52.560;13.374;2023-04-30T01:50:19;101561.56;;;6.10;82.52
67015;BME280;1033;52.560;13.374;2023-04-30T01:52:53;101562.88;;;6.06;83.26
67015;BME280;1033;52.560;13.374;2023-04-30T01:55:29;101560.66;;;6.02;83.25
67015;BME280;1033;52.560;13.374;2023-04-30T01:58:05;101566.03;;;6.02;83.46
67015;BME280;1033;52.560;13.374;2023-04-30T02:00:36;101564.91;;;6.04;83.80
67015;BME280;1033;52.560;13.374;2023-04-30T02:03:05;101570.03;;;5.98;84.35
67015;BME280;1033;52.560;13.374;2023-04-30T02:05:35;101575.03;;;5.93;84.84
67015;BME280;1033;52.560;13.374;2023-04-30T02:08:04;101585.94;;;5.91;84.63
67015;BME280;1033;52.560;13.374;2023-04-30T02:10:33;101587.34;;;5.95;84.57
67015;BME280;1033;52.560;13.374;2023-04-30T02:13:02;101583.47;;;5.98;84.09
67015;BME280;1033;52.560;13.374;2023-04-30T02:15:31;101582.78;;;5.96;84.29
67015;BME280;1033;52.560;13.374;2023-04-30T02:18:02;101598.94;;;5.86;85.00
67015;BME280;1033;52.560;13.374;2023-04-30T02:20:31;101600.38;;;5.90;84.73
67015;BME280;1033;52.560;13.374;2023-04-30T02:23:00;101597.75;;;5.81;84.94
67015;BME280;1033;52.560;13.374;2023-04-30T02:25:29;101593.28;;;5.72;85.46
67015;BME280;1033;52.560;13.374;2023-04-30T02:27:59;101603.78;;;5.83;85.23
67015;BME280;1033;52.560;13.374;2023-04-30T02:30:28;101605.09;;;5.79;85.71
67015;BME280;1033;52.560;13.374;2023-04-30T02:32:57;101603.50;;;5.68;86.16
67015;BME280;1033;52.560;13.374;2023-04-30T02:35:27;101608.09;;;5.58;86.92
67015;BME280;1033;52.560;13.374;2023-04-30T02:37:57;101599.03;;;5.41;88.00
67015;BME280;1033;52.560;13.374;2023-04-30T02:40:26;101604.47;;;5.49;87.93
67015;BME280;1033;52.560;13.374;2023-04-30T02:42:55;101610.00;;;5.48;88.22
67015;BME280;1033;52.560;13.374;2023-04-30T02:45:23;101610.56;;;5.51;88.44
67015;BME280;1033;52.560;13.374;2023-04-30T02:47:53;101617.44;;;5.36;89.15
67015;BME280;1033;52.560;13.374;2023-04-30T02:50:22;101615.66;;;5.45;89.49
67015;BME280;1033;52.560;13.374;2023-04-30T02:52:52;101619.47;;;5.42;89.73
67015;BME280;1033;52.560;13.374;2023-04-30T02:55:22;101619.34;;;5.44;89.34
67015;BME280;1033;52.560;13.374;2023-04-30T02:57:51;101619.94;;;5.38;89.88
67015;BME280;1033;52.560;13.374;2023-04-30T03:00:20;101614.75;;;5.36;90.42
67015;BME280;1033;52.560;13.374;2023-04-30T03:02:50;101625.63;;;5.35;90.28
67015;BME280;1033;52.560;13.374;2023-04-30T03:05:19;101624.19;;;5.40;90.16
67015;BME280;1033;52.560;13.374;2023-04-30T03:07:48;101626.16;;;5.38;90.25
67015;BME280;1033;52.560;13.374;2023-04-30T03:10:18;101637.34;;;5.34;90.37
67015;BME280;1033;52.560;13.374;2023-04-30T03:12:47;101628.22;;;5.27;90.38
67015;BME280;1033;52.560;13.374;2023-04-30T03:15:17;101640.41;;;5.21;90.56
67015;BME280;1033;52.560;13.374;2023-04-30T03:17:46;101642.38;;;5.19;91.21
67015;BME280;1033;52.560;13.374;2023-04-30T03:20:15;101646.22;;;5.16;90.90
67015;BME280;1033;52.560;13.374;2023-04-30T03:22:44;101642.94;;;5.22;90.36
67015;BME280;1033;52.560;13.374;2023-04-30T03:25:14;101649.44;;;5.20;90.46
67015;BME280;1033;52.560;13.374;2023-04-30T03:27:44;101642.13;;;5.12;90.91
67015;BME280;1033;52.560;13.374;2023-04-30T03:30:13;101645.28;;;5.08;91.33
67015;BME280;1033;52.560;13.374;2023-04-30T03:32:42;101652.75;;;5.04;91.07
67015;BME280;1033;52.560;13.374;2023-04-30T03:35:11;101651.22;;;5.02;91.53
67015;BME280;1033;52.560;13.374;2023-04-30T03:37:42;101651.81;;;4.96;91.38
67015;BME280;1033;52.560;13.374;2023-04-30T03:40:12;101647.59;;;4.93;91.96
67015;BME280;1033;52.560;13.374;2023-04-30T03:42:41;101655.47;;;4.95;91.44
67015;BME280;1033;52.560;13.374;2023-04-30T03:45:11;101655.47;;;4.95;91.99
67015;BME280;1033;52.560;13.374;2023-04-30T03:47:41;101657.19;;;4.86;92.25
67015;BME280;1033;52.560;13.374;2023-04-30T03:50:10;101658.56;;;5.00;92.26
67015;BME280;1033;52.560;13.374;2023-04-30T03:52:39;101668.16;;;5.02;91.70
67015;BME280;1033;52.560;13.374;2023-04-30T03:55:09;101671.69;;;5.03;91.83
67015;BME280;1033;52.560;13.374;2023-04-30T03:57:39;101669.00;;;5.03;91.75
67015;BME280;1033;52.560;13.374;2023-04-30T04:00:11;101672.91;;;5.08;90.84
67015;BME280;1033;52.560;13.374;2023-04-30T04:02:44;101668.19;;;5.47;89.63
67015;BME280;1033;52.560;13.374;2023-04-30T04:05:13;101671.47;;;5.68;88.21
67015;BME280;1033;52.560;13.374;2023-04-30T04:07:44;101679.88;;;6.36;85.17
67015;BME280;1033;52.560;13.374;2023-04-30T04:10:13;101682.38;;;6.81;81.43
67015;BME280;1033;52.560;13.374;2023-04-30T04:12:42;101685.09;;;7.57;77.66
67015;BME280;1033;52.560;13.374;2023-04-30T04:15:13;101682.91;;;7.61;76.40
67015;BME280;1033;52.560;13.374;2023-04-30T04:17:42;101690.09;;;8.02;74.36
67015;BME280;1033;52.560;13.374;2023-04-30T04:20:11;101688.25;;;8.11;72.97
67015;BME280;1033;52.560;13.374;2023-04-30T04:22:42;101695.53;;;8.35;71.53
67015;BME280;1033;52.560;13.374;2023-04-30T04:25:12;101701.09;;;8.65;70.01
67015;BME280;1033;52.560;13.374;2023-04-30T04:27:43;101700.56;;;8.78;70.10
67015;BME280;1033;52.560;13.374;2023-04-30T04:30:14;101707.66;;;8.63;68.67
67015;BME280;1033;52.560;13.374;2023-04-30T04:32:43;101703.97;;;8.56;69.47
67015;BME280;1033;52.560;13.374;2023-04-30T04:35:15;101706.13;;;9.48;66.64
67015;BME280;1033;52.560;13.374;2023-04-30T04:37:45;101711.50;;;9.87;64.78
67015;BME280;1033;52.560;13.374;2023-04-30T04:40:14;101712.94;;;10.28;62.28
67015;BME280;1033;52.560;13.374;2023-04-30T04:42:43;101714.31;;;9.93;62.77
67015;BME280;1033;52.560;13.374;2023-04-30T04:45:13;101714.94;;;10.34;61.78
67015;BME280;1033;52.560;13.374;2023-04-30T04:47:42;101721.78;;;10.45;61.30
67015;BME280;1033;52.560;13.374;2023-04-30T04:50:12;101718.75;;;11.15;58.88
67015;BME280;1033;52.560;13.374;2023-04-30T04:52:41;101722.13;;;10.65;59.69
67015;BME280;1033;52.560;13.374;2023-04-30T04:55:10;101730.53;;;11.22;58.27
67015;BME280;1033;52.560;13.374;2023-04-30T04:57:40;101734.41;;;11.05;57.54
67015;BME280;1033;52.560;13.374;2023-04-30T05:00:10;101741.94;;;11.47;57.57
67015;BME280;1033;52.560;13.374;2023-04-30T05:02:41;101737.03;;;10.83;59.02
67015;BME280;1033;52.560;13.374;2023-04-30T05:05:10;101739.28;;;11.83;56.73
67015;BME280;1033;52.560;13.374;2023-04-30T05:07:39;101738.34;;;12.26;54.09
67015;BME280;1033;52.560;13.374;2023-04-30T05:10:08;101746.59;;;13.10;52.86
67015;BME280;1033;52.560;13.374;2023-04-30T05:12:38;101750.03;;;13.18;52.48
67015;BME280;1033;52.560;13.374;2023-04-30T05:15:07;101754.56;;;12.41;53.33
67015;BME280;1033;52.560;13.374;2023-04-30T05:17:36;101761.78;;;10.95;56.88
67015;BME280;1033;52.560;13.374;2023-04-30T05:20:08;101761.97;;;8.92;64.06
67015;BME280;1033;52.560;13.374;2023-04-30T05:22:39;101761.94;;;8.27;67.49
67015;BME280;1033;52.560;13.374;2023-04-30T05:25:09;101761.63;;;7.47;72.17
67015;BME280;1033;52.560;13.374;2023-04-30T05:27:38;101773.59;;;7.44;73.50
67015;BME280;1033;52.560;13.374;2023-04-30T05:30:08;101770.84;;;7.36;74.51
67015;BME280;1033;52.560;13.374;2023-04-30T05:32:40;101769.53;;;7.14;75.27
67015;BME280;1033;52.560;13.374;2023-04-30T05:35:10;101778.53;;;6.97;75.22
67015;BME280;1033;52.560;13.374;2023-04-30T05:37:39;101783.44;;;6.84;75.96
67015;BME280;1033;52.560;13.374;2023-04-30T05:40:09;101783.00;;;6.71;76.43
67015;BME280;1033;52.560;13.374;2023-04-30T05:42:38;101791.09;;;6.71;77.69
67015;BME280;1033;52.560;13.374;2023-04-30T05:45:11;101785.66;;;6.63;77.72
67015;BME280;1033;52.560;13.374;2023-04-30T05:47:41;101788.88;;;6.66;77.68
67015;BME280;1033;52.560;13.374;2023-04-30T05:50:11;101786.59;;;6.79;77.88
67015;BME280;1033;52.560;13.374;2023-04-30T05:52:40;101780.47;;;6.87;76.69
67015;BME280;1033;52.560;13.374;2023-04-30T05:55:10;101796.44;;;6.88;75.98
67015;BME280;1033;52.560;13.374;2023-04-30T05:57:39;101792.75;;;6.89;76.11
67015;BME280;1033;52.560;13.374;2023-04-30T06:00:09;101783.25;;;7.03;75.97
67015;BME280;1033;52.560;13.374;2023-04-30T06:02:39;101792.28;;;6.94;74.94
67015;BME280;1033;52.560;13.374;2023-04-30T06:05:08;101799.13;;;6.88;75.55
67015;BME280;1033;52.560;13.374;2023-04-30T06:07:42;101795.19;;;7.01;75.03
67015;BME280;1033;52.560;13.374;2023-04-30T06:10:11;101795.50;;;7.23;73.25
67015;BME280;1033;52.560;13.374;2023-04-30T06:12:40;101804.50;;;7.06;73.53
67015;BME280;1033;52.560;13.374;2023-04-30T06:15:10;101810.91;;;7.13;72.81
67015;BME280;1033;52.560;13.374;2023-04-30T06:17:39;101803.19;;;6.92;73.67
67015;BME280;1033;52.560;13.374;2023-04-30T06:20:08;101805.28;;;7.24;72.29
67015;BME280;1033;52.560;13.374;2023-04-30T06:22:38;101812.91;;;7.37;72.15
67015;BME280;1033;52.560;13.374;2023-04-30T06:25:09;101814.50;;;7.48;71.45
67015;BME280;1033;52.560;13.374;2023-04-30T06:27:38;101817.94;;;7.58;70.10
67015;BME280;1033;52.560;13.374;2023-04-30T06:30:08;101819.66;;;7.67;70.67
67015;BME280;1033;52.560;13.374;2023-04-30T06:32:37;101817.91;;;7.83;69.32
67015;BME280;1033;52.560;13.374;2023-04-30T06:35:08;101827.63;;;7.76;68.72
67015;BME280;1033;52.560;13.374;2023-04-30T06:37:37;101830.19;;;7.86;69.03
67015;BME280;1033;52.560;13.374;2023-04-30T06:40:09;101825.44;;;7.80;69.74
67015;BME280;1033;52.560;13.374;2023-04-30T06:42:38;101824.06;;;7.76;68.92
67015;BME280;1033;52.560;13.374;2023-04-30T06:45:08;101825.38;;;7.64;69.00
67015;BME280;1033;52.560;13.374;2023-04-30T06:47:37;101819.69;;;7.75;68.78
67015;BME280;1033;52.560;13.374;2023-04-30T06:50:08;101826.47;;;7.79;68.54
67015;BME280;1033;52.560;13.374;2023-04-30T06:52:38;101822.06;;;7.78;68.41
67015;BME280;1033;52.560;13.374;2023-04-30T06:55:08;101825.03;;;8.09;67.21
67015;BME280;1033;52.560;13.374;2023-04-30T06:57:38;101820.13;;;7.96;66.99
67015;BME280;1033;52.560;13.374;2023-04-30T07:00:09;101823.09;;;8.27;66.66
67015;BME280;1033;52.560;13.374;2023-04-30T07:02:39;101815.56;;;8.39;66.57
67015;BME280;1033;52.560;13.374;2023-04-30T07:05:08;101818.47;;;8.61;65.42
67015;BME280;1033;52.560;13.374;2023-04-30T07:07:38;101810.56;;;8.84;64.46
67015;BME280;1033;52.560;13.374;2023-04-30T07:10:09;101821.34;;;8.92;63.35
67015;BME280;1033;52.560;13.374;2023-04-30T07:12:38;101822.03;;;9.02;62.78
67015;BME280;1033;52.560;13.374;2023-04-30T07:15:08;101809.53;;;8.93;62.59
67015;BME280;1033;52.560;13.374;2023-04-30T07:17:37;101833.66;;;9.03;62.34
67015;BME280;1033;52.560;13.374;2023-04-30T07:20:09;101828.63;;;9.00;62.34
67015;BME280;1033;52.560;13.374;2023-04-30T07:22:38;101829.78;;;8.89;62.32
67015;BME280;1033;52.560;13.374;2023-04-30T07:25:09;101825.25;;;8.90;61.44
67015;BME280;1033;52.560;13.374;2023-04-30T07:27:39;101832.47;;;8.97;61.78
67015;BME280;1033;52.560;13.374;2023-04-30T07:30:10;101824.72;;;8.86;61.77
67015;BME280;1033;52.560;13.374;2023-04-30T07:32:39;101823.72;;;8.87;61.37
67015;BME280;1033;52.560;13.374;2023-04-30T07:35:09;101826.91;;;8.99;60.94
67015;BME280;1033;52.560;13.374;2023-04-30T07:37:38;101831.28;;;9.32;60.01
67015;BME280;1033;52.560;13.374;2023-04-30T07:40:10;101823.84;;;9.34;60.07
67015;BME280;1033;52.560;13.374;2023-04-30T07:42:51;101823.69;;;9.28;59.82
67015;BME280;1033;52.560;13.374;2023-04-30T07:45:20;101821.59;;;9.54;59.43
67015;BME280;1033;52.560;13.374;2023-04-30T07:47:49;101834.06;;;9.71;58.54
67015;BME280;1033;52.560;13.374;2023-04-30T07:50:18;101830.34;;;9.64;56.58
67015;BME280;1033;52.560;13.374;2023-04-30T07:52:48;101829.66;;;9.70;56.56
67015;BME280;1033;52.560;13.374;2023-04-30T07:55:19;101848.31;;;9.41;56.79
67015;BME280;1033;52.560;13.374;2023-04-30T07:57:48;101840.56;;;9.05;54.17
67015;BME280;1033;52.560;13.374;2023-04-30T08:00:17;101843.81;;;8.85;56.04
67015;BME280;1033;52.560;13.374;2023-04-30T08:02:46;101848.00;;;8.79;54.73
67015;BME280;1033;52.560;13.374;2023-04-30T08:05:16;101844.31;;;9.04;53.88
67015;BME280;1033;52.560;13.374;2023-04-30T08:07:45;101847.31;;;9.34;54.54
67015;BME280;1033;52.560;13.374;2023-04-30T08:10:14;101836.19;;;9.84;55.12
67015;BME280;1033;52.560;13.374;2023-04-30T08:12:45;101843.72;;;10.04;53.26
67015;BME280;1033;52.560;13.374;2023-04-30T08:15:14;101843.88;;;9.64;53.23
67015;BME280;1033;52.560;13.374;2023-04-30T08:17:43;101841.97;;;9.81;53.88
67015;BME280;1033;52.560;13.374;2023-04-30T08:20:12;101847.22;;;10.13;53.19
67015;BME280;1033;52.560;13.374;2023-04-30T08:22:41;101844.53;;;9.66;51.90
67015;BME280;1033;52.560;13.374;2023-04-30T08:25:10;101850.34;;;9.31;49.49
67015;BME280;1033;52.560;13.374;2023-04-30T08:27:39;101854.72;;;9.40;50.65
67015;BME280;1033;52.560;13.374;2023-04-30T08:30:10;101841.69;;;9.68;47.15
67015;BME280;1033;52.560;13.374;2023-04-30T08:32:39;101845.84;;;9.78;46.82
67015;BME280;1033;52.560;13.374;2023-04-30T08:35:09;101855.47;;;10.28;47.01
67015;BME280;1033;52.560;13.374;2023-04-30T08:37:38;101854.47;;;10.29;46.40
67015;BME280;1033;52.560;13.374;2023-04-30T08:40:08;101840.88;;;10.37;46.13
67015;BME280;1033;52.560;13.374;2023-04-30T08:42:43;101852.81;;;10.20;45.60
67015;BME280;1033;52.560;13.374;2023-04-30T08:45:14;101855.94;;;9.92;45.33
67015;BME280;1033;52.560;13.374;2023-04-30T08:47:44;101856.63;;;9.94;46.26
67015;BME280;1033;52.560;13.374;2023-04-30T08:50:14;101856.97;;;9.91;47.34
67015;BME280;1033;52.560;13.374;2023-04-30T08:52:43;101864.66;;;10.11;46.19
67015;BME280;1033;52.560;13.374;2023-04-30T08:55:12;101854.31;;;10.30;44.08
67015;BME280;1033;52.560;13.374;2023-04-30T08:57:41;101847.59;;;10.49;43.92
67015;BME280;1033;52.560;13.374;2023-04-30T09:00:11;101851.09;;;10.80;43.20
67015;BME280;1033;52.560;13.374;2023-04-30T09:02:42;101856.50;;;10.80;43.15
67015;BME280;1033;52.560;13.374;2023-04-30T09:05:13;101847.72;;;11.01;44.53
67015;BME280;1033;52.560;13.374;2023-04-30T09:07:43;101850.25;;;11.03;43.98
67015;BME280;1033;52.560;13.374;2023-04-30T09:10:17;101848.22;;;10.82;44.67
67015;BME280;1033;52.560;13.374;2023-04-30T09:12:58;101855.41;;;10.89;42.13
67015;BME280;1033;52.560;13.374;2023-04-30T09:15:28;101860.59;;;10.76;43.21
67015;BME280;1033;52.560;13.374;2023-04-30T09:18:09;101854.34;;;10.76;43.92
67015;BME280;1033;52.560;13.374;2023-04-30T09:20:53;101861.81;;;10.97;44.50
67015;BME280;1033;52.560;13.374;2023-04-30T09:23:23;101858.00;;;11.06;40.39
67015;BME280;1033;52.560;13.374;2023-04-30T09:25:52;101864.50;;;10.97;40.14
67015;BME280;1033;52.560;13.374;2023-04-30T09:28:22;101848.94;;;10.99;40.35
67015;BME280;1033;52.560;13.374;2023-04-30T09:30:57;101850.19;;;11.11;40.72
67015;BME280;1033;52.560;13.374;2023-04-30T09:33:27;101842.66;;;11.36;39.44
67015;BME280;1033;52.560;13.374;2023-04-30T09:35:57;101853.81;;;11.41;38.83
67015;BME280;1033;52.560;13.374;2023-04-30T09:38:36;101857.09;;;11.65;39.06
67015;BME280;1033;52.560;13.374;2023-04-30T09:41:05;101853.38;;;11.66;37.60
67015;BME280;1033;52.560;13.374;2023-04-30T09:43:44;101860.88;;;11.27;38.94
67015;BME280;1033;52.560;13.374;2023-04-30T09:46:13;101856.59;;;11.10;39.21
67015;BME280;1033;52.560;13.374;2023-04-30T09:48:57;101855.28;;;11.06;39.59
67015;BME280;1033;52.560;13.374;2023-04-30T09:51:53;101858.09;;;11.35;39.27
67015;BME280;1033;52.560;13.374;2023-04-30T09:54:25;101851.28;;;11.54;39.42
67015;BME280;1033;52.560;13.374;2023-04-30T09:56:55;101849.41;;;11.54;39.82
67015;BME280;1033;52.560;13.374;2023-04-30T09:59:28;101846.66;;;11.92;40.14
67015;BME280;1033;52.560;13.374;2023-04-30T10:01:59;101842.91;;;12.07;39.96
67015;BME280;1033;52.560;13.374;2023-04-30T10:04:32;101839.91;;;12.17;38.66
67015;BME280;1033;52.560;13.374;2023-04-30T10:07:04;101838.34;;;11.79;40.04
67015;BME280;1033;52.560;13.374;2023-04-30T10:09:38;101840.38;;;12.06;39.08
67015;BME280;1033;52.560;13.374;2023-04-30T10:12:13;101840.00;;;12.24;37.93
67015;BME280;1033;52.560;13.374;2023-04-30T10:14:49;101831.97;;;11.86;39.15
67015;BME280;1033;52.560;13.374;2023-04-30T10:17:20;101837.56;;;11.55;39.58
67015;BME280;1033;52.560;13.374;2023-04-30T10:19:58;101836.38;;;11.72;38.71
67015;BME280;1033;52.560;13.374;2023-04-30T10:22:29;101836.16;;;12.18;38.85
67015;BME280;1033;52.560;13.374;2023-04-30T10:24:59;101840.59;;;11.90;39.24
67015;BME280;1033;52.560;13.374;2023-04-30T10:27:29;101835.53;;;11.87;39.48
67015;BME280;1033;52.560;13.374;2023-04-30T10:30:00;101829.13;;;12.24;40.53
67015;BME280;1033;52.560;13.374;2023-04-30T10:32:35;101841.94;;;12.87;39.37
67015;BME280;1033;52.560;13.374;2023-04-30T10:35:11;101835.56;;;12.37;39.48
67015;BME280;1033;52.560;13.374;2023-04-30T10:37:49;101835.66;;;12.65;40.34
67015;BME280;1033;52.560;13.374;2023-04-30T10:40:21;101826.25;;;12.89;37.71
67015;BME280;1033;52.560;13.374;2023-04-30T10:42:53;101826.16;;;12.97;37.75
67015;BME280;1033;52.560;13.374;2023-04-30T10:45:34;101821.63;;;12.61;38.39
67015;BME280;1033;52.560;13.374;2023-04-30T10:48:05;101817.69;;;12.85;38.22
67015;BME280;1033;52.560;13.374;2023-04-30T10:50:41;101827.25;;;12.81;37.88
67015;BME280;1033;52.560;13.374;2023-04-30T10:53:13;101811.50;;;12.34;37.60
67015;BME280;1033;52.560;13.374;2023-04-30T10:55:47;101808.13;;;12.32;38.50
67015;BME280;1033;52.560;13.374;2023-04-30T10:58:24;101815.03;;;12.13;39.38
67015;BME280;1033;52.560;13.374;2023-04-30T11:01:01;101813.25;;;12.06;39.56
67015;BME280;1033;52.560;13.374;2023-04-30T11:03:33;101810.19;;;12.66;39.90
67015;BME280;1033;52.560;13.374;2023-04-30T11:06:11;101804.53;;;13.10;39.17
67015;BME280;1033;52.560;13.374;2023-04-30T11:08:43;101807.38;;;13.02;37.86
67015;BME280;1033;52.560;13.374;2023-04-30T11:11:17;101805.97;;;12.85;37.85
67015;BME280;1033;52.560;13.374;2023-04-30T11:13:58;101797.69;;;12.72;38.01
67015;BME280;1033;52.560;13.374;2023-04-30T11:16:29;101798.38;;;13.23;38.92
67015;BME280;1033;52.560;13.374;2023-04-30T11:19:05;101805.34;;;13.32;37.94
67015;BME280;1033;52.560;13.374;2023-04-30T11:21:43;101804.63;;;13.17;38.17
67015;BME280;1033;52.560;13.374;2023-04-30T11:24:50;101804.66;;;13.23;37.63
67015;BME280;1033;52.560;13.374;2023-04-30T11:27:21;101799.66;;;13.27;38.25
67015;BME280;1033;52.560;13.374;2023-04-30T11:29:51;101800.88;;;13.52;37.55
67015;BME280;1033;52.560;13.374;2023-04-30T11:32:23;101793.38;;;13.61;36.73
67015;BME280;1033;52.560;13.374;2023-04-30T11:34:54;101790.84;;;13.53;37.17
67015;BME280;1033;52.560;13.374;2023-04-30T11:37:30;101792.94;;;13.51;37.37
67015;BME280;1033;52.560;13.374;2023-04-30T11:40:01;101793.56;;;13.53;37.11
67015;BME280;1033;52.560;13.374;2023-04-30T11:42:30;101796.59;;;13.71;37.18
67015;BME280;1033;52.560;13.374;2023-04-30T11:45:03;101795.31;;;13.67;37.03
67015;BME280;1033;52.560;13.374;2023-04-30T11:47:40;101791.50;;;13.55;37.34
67015;BME280;1033;52.560;13.374;2023-04-30T11:50:11;101788.28;;;13.85;37.74
67015;BME280;1033;52.560;13.374;2023-04-30T11:52:47;101791.00;;;13.44;38.15
67015;BME280;1033;52.560;13.374;2023-04-30T11:55:19;101780.84;;;13.25;37.99
67015;BME280;1033;52.560;13.374;2023-04-30T11:57:49;101772.53;;;13.33;38.33
67015;BME280;1033;52.560;13.374;2023-04-30T12:00:21;101774.97;;;13.97;38.39
67015;BME280;1033;52.560;13.374;2023-04-30T12:02:50;101769.56;;;14.10;36.67
67015;BME280;1033;52.560;13.374;2023-04-30T12:05:20;101774.16;;;14.03;38.21
67015;BME280;1033;52.560;13.374;2023-04-30T12:07:53;101779.28;;;14.32;37.30
67015;BME280;1033;52.560;13.374;2023-04-30T12:10:23;101783.00;;;14.18;37.23
67015;BME280;1033;52.560;13.374;2023-04-30T12:12:52;101782.06;;;14.46;36.67
67015;BME280;1033;52.560;13.374;2023-04-30T12:15:23;101783.84;;;14.25;36.91
67015;BME280;1033;52.560;13.374;2023-04-30T12:17:55;101774.56;;;13.59;37.91
67015;BME280;1033;52.560;13.374;2023-04-30T12:20:26;101780.50;;;13.69;37.63
67015;BME280;1033;52.560;13.374;2023-04-30T12:22:58;101779.75;;;13.88;37.63
67015;BME280;1033;52.560;13.374;2023-04-30T12:25:28;101778.66;;;13.83;37.78
67015;BME280;1033;52.560;13.374;2023-04-30T12:27:58;101774.50;;;13.87;37.35
67015;BME280;1033;52.560;13.374;2023-04-30T12:30:28;101766.00;;;14.03;37.85
67015;BME280;1033;52.560;13.374;2023-04-30T12:32:58;101770.56;;;14.83;37.55
67015;BME280;1033;52.560;13.374;2023-04-30T12:35:29;101762.59;;;15.01;36.43
67015;BME280;1033;52.560;13.374;2023-04-30T12:38:05;101762.59;;;15.08;35.65
67015;BME280;1033;52.560;13.374;2023-04-30T12:40:38;101761.34;;;14.71;36.35
67015;BME280;1033;52.560;13.374;2023-04-30T12:43:08;101760.50;;;14.64;36.72
67015;BME280;1033;52.560;13.374;2023-04-30T12:45:45;101765.94;;;14.64;37.36
67015;BME280;1033;52.560;13.374;2023-04-30T12:48:16;101764.59;;;14.27;37.19
67015;BME280;1033;52.560;13.374;2023-04-30T12:50:51;101758.66;;;14.10;38.36
67015;BME280;1033;52.560;13.374;2023-04-30T12:53:22;101761.13;;;13.92;37.92
67015;BME280;1033;52.560;13.374;2023-04-30T12:56:07;101762.31;;;13.76;38.59
67015;BME280;1033;52.560;13.374;2023-04-30T12:58:42;101755.22;;;13.82;38.28
67015;BME280;1033;52.560;13.374;2023-04-30T13:01:17;101748.41;;;14.06;37.56
67015;BME280;1033;52.560;13.374;2023-04-30T13:03:47;101738.56;;;14.05;38.43
67015;BME280;1033;52.560;13.374;2023-04-30T13:06:16;101753.75;;;13.86;38.69
67015;BME280;1033;52.560;13.374;2023-04-30T13:08:47;101751.28;;;13.91;38.88
67015;BME280;1033;52.560;13.374;2023-04-30T13:11:25;101740.88;;;14.08;39.03
67015;BME280;1033;52.560;13.374;2023-04-30T13:13:55;101729.03;;;14.48;39.04
67015;BME280;1033;52.560;13.374;2023-04-30T13:16:24;101736.59;;;14.53;38.24
67015;BME280;1033;52.560;13.374;2023-04-30T13:18:54;101739.13;;;14.54;38.14